AAL4489 KDCA-KBHM
Flight info
| Callsign | AAL4489 |
|---|---|
| Flight time | 1h 42m |
| Altitude | 30000 |
| Route | CLTCH3 MAULS Q40 NIOLA DIODE |
| Aircraft | ERJ4/M-VGDW/C |
Departure
| Time | 2026-04-20 12:15 |
|---|---|
| Airport | Ronald Reagan Washington National Airport (KDCA) |
Arrival
| Time | 2026-04-20 13:58 |
|---|---|
| Airport | Birmingham-Shuttlesworth International Airport (KBHM) |
| Time | Latitude | Longitude | Altitude | Speed | Heading |
|---|---|---|---|---|---|
| 2026-04-20 11:55 | 38.85574 | -77.04169 | 20 ft | 0 kts | 317° |
| 2026-04-20 12:08 | 38.85574 | -77.04170 | 20 ft | 0 kts | 318° |
| 2026-04-20 12:08 | 38.85573 | -77.04169 | 20 ft | 2 kts | 317° |
| 2026-04-20 12:08 | 38.85562 | -77.04156 | 20 ft | 2 kts | 317° |
| 2026-04-20 12:08 | 38.85550 | -77.04145 | 20 ft | 2 kts | 345° |
| 2026-04-20 12:09 | 38.85535 | -77.04144 | 21 ft | 2 kts | 17° |
| 2026-04-20 12:09 | 38.85523 | -77.04153 | 21 ft | 2 kts | 49° |
| 2026-04-20 12:09 | 38.85517 | -77.04166 | 22 ft | 1 kts | 72° |
| 2026-04-20 12:09 | 38.85516 | -77.04169 | 22 ft | 0 kts | 72° |
| 2026-04-20 12:10 | 38.85516 | -77.04168 | 22 ft | 0 kts | 72° |
| 2026-04-20 12:11 | 38.85524 | -77.04137 | 21 ft | 6 kts | 72° |
| 2026-04-20 12:11 | 38.85544 | -77.04056 | 19 ft | 12 kts | 72° |
| 2026-04-20 12:11 | 38.85531 | -77.03965 | 17 ft | 10 kts | 144° |
| 2026-04-20 12:11 | 38.85448 | -77.03944 | 17 ft | 13 kts | 175° |
| 2026-04-20 12:12 | 38.85341 | -77.03934 | 17 ft | 17 kts | 176° |
| 2026-04-20 12:12 | 38.85212 | -77.03923 | 18 ft | 19 kts | 176° |
| 2026-04-20 12:12 | 38.85065 | -77.03909 | 16 ft | 23 kts | 176° |
| 2026-04-20 12:12 | 38.84913 | -77.03889 | 16 ft | 18 kts | 156° |
| 2026-04-20 12:13 | 38.84887 | -77.03735 | 14 ft | 15 kts | 80° |
| 2026-04-20 12:13 | 38.84924 | -77.03590 | 13 ft | 19 kts | 63° |
| 2026-04-20 12:13 | 38.84964 | -77.03422 | 11 ft | 18 kts | 98° |
| 2026-04-20 12:13 | 38.84967 | -77.03271 | 8 ft | 16 kts | 73° |
| 2026-04-20 12:14 | 38.85000 | -77.03238 | 9 ft | 5 kts | 340° |
| 2026-04-20 12:14 | 38.85008 | -77.03246 | 9 ft | 0 kts | 319° |
| 2026-04-20 12:15 | 38.85140 | -77.03378 | 10 ft | 69 kts | 322° |
| 2026-04-20 12:15 | 38.85741 | -77.03975 | 22 ft | 145 kts | 321° |
| 2026-04-20 12:15 | 38.86547 | -77.04819 | 722 ft | 153 kts | 317° |
| 2026-04-20 12:16 | 38.87465 | -77.05566 | 1500 ft | 173 kts | 334° |
| 2026-04-20 12:16 | 38.88725 | -77.06289 | 1810 ft | 222 kts | 332° |
| 2026-04-20 12:16 | 38.90087 | -77.07230 | 2663 ft | 227 kts | 320° |
| 2026-04-20 12:16 | 38.90968 | -77.08894 | 3463 ft | 238 kts | 289° |
| 2026-04-20 12:17 | 38.91723 | -77.10696 | 4732 ft | 234 kts | 313° |
| 2026-04-20 12:17 | 38.93042 | -77.11872 | 5919 ft | 235 kts | 326° |
| 2026-04-20 12:17 | 38.94424 | -77.12941 | 6987 ft | 238 kts | 325° |
| 2026-04-20 12:17 | 38.95834 | -77.14053 | 7971 ft | 241 kts | 319° |
| 2026-04-20 12:18 | 38.96806 | -77.15732 | 8944 ft | 239 kts | 288° |
| 2026-04-20 12:18 | 38.97140 | -77.17768 | 9986 ft | 239 kts | 281° |
| 2026-04-20 12:18 | 38.97459 | -77.19865 | 10962 ft | 243 kts | 280° |
| 2026-04-20 12:18 | 38.97783 | -77.22028 | 11679 ft | 256 kts | 281° |
| 2026-04-20 12:19 | 38.98119 | -77.24274 | 12471 ft | 264 kts | 281° |
| 2026-04-20 12:19 | 38.98214 | -77.26682 | 13115 ft | 279 kts | 262° |
| 2026-04-20 12:19 | 38.97384 | -77.28984 | 13747 ft | 302 kts | 238° |
| 2026-04-20 12:19 | 38.95674 | -77.30718 | 14401 ft | 329 kts | 215° |
| 2026-04-20 12:20 | 38.93691 | -77.32131 | 15204 ft | 325 kts | 224° |
| 2026-04-20 12:20 | 38.91837 | -77.33794 | 16132 ft | 324 kts | 224° |
| 2026-04-20 12:20 | 38.90017 | -77.35441 | 17074 ft | 323 kts | 225° |
| 2026-04-20 12:20 | 38.88187 | -77.37101 | 17832 ft | 325 kts | 225° |
| 2026-04-20 12:21 | 38.86365 | -77.38750 | 18745 ft | 324 kts | 226° |
| 2026-04-20 12:21 | 38.84531 | -77.40410 | 19653 ft | 321 kts | 226° |
| 2026-04-20 12:21 | 38.82738 | -77.42032 | 20565 ft | 318 kts | 227° |
| 2026-04-20 12:21 | 38.80947 | -77.43650 | 21555 ft | 312 kts | 227° |
| 2026-04-20 12:22 | 38.79182 | -77.45248 | 22299 ft | 314 kts | 227° |
| 2026-04-20 12:22 | 38.77415 | -77.46841 | 23152 ft | 311 kts | 227° |
| 2026-04-20 12:22 | 38.75679 | -77.48406 | 24175 ft | 303 kts | 228° |
| 2026-04-20 12:22 | 38.73994 | -77.49927 | 25028 ft | 299 kts | 229° |
| 2026-04-20 12:23 | 38.72501 | -77.51656 | 25764 ft | 283 kts | 239° |
| 2026-04-20 12:23 | 38.71204 | -77.53497 | 26465 ft | 284 kts | 238° |
| 2026-04-20 12:23 | 38.69874 | -77.55366 | 27187 ft | 283 kts | 237° |
| 2026-04-20 12:23 | 38.68572 | -77.57194 | 27924 ft | 281 kts | 238° |
| 2026-04-20 12:24 | 38.67245 | -77.59055 | 28687 ft | 278 kts | 238° |
| 2026-04-20 12:24 | 38.65962 | -77.60854 | 29485 ft | 273 kts | 237° |
| 2026-04-20 12:24 | 38.64679 | -77.62652 | 30094 ft | 275 kts | 238° |
| 2026-04-20 12:24 | 38.63374 | -77.64485 | 30236 ft | 288 kts | 237° |
| 2026-04-20 12:25 | 38.61983 | -77.66433 | 30247 ft | 302 kts | 236° |
| 2026-04-20 12:25 | 38.60526 | -77.68470 | 30263 ft | 316 kts | 236° |
| 2026-04-20 12:25 | 38.59020 | -77.70576 | 30248 ft | 329 kts | 235° |
| 2026-04-20 12:25 | 38.57438 | -77.72785 | 30251 ft | 341 kts | 236° |
| 2026-04-20 12:26 | 38.54179 | -77.77331 | 30232 ft | 356 kts | 234° |
| 2026-04-20 12:26 | 38.50818 | -77.82040 | 30276 ft | 362 kts | 235° |
| 2026-04-20 12:27 | 38.47426 | -77.86813 | 30281 ft | 367 kts | 235° |
| 2026-04-20 12:27 | 38.44072 | -77.91759 | 30268 ft | 365 kts | 240° |
| 2026-04-20 12:28 | 38.41153 | -77.97074 | 30256 ft | 369 kts | 241° |
| 2026-04-20 12:28 | 38.38181 | -78.02440 | 30262 ft | 371 kts | 240° |
| 2026-04-20 12:29 | 38.35202 | -78.07805 | 30258 ft | 374 kts | 241° |
| 2026-04-20 12:29 | 38.32208 | -78.13188 | 30258 ft | 374 kts | 240° |
| 2026-04-20 12:30 | 38.29210 | -78.18570 | 30217 ft | 373 kts | 241° |
| 2026-04-20 12:30 | 38.26206 | -78.23951 | 30222 ft | 371 kts | 241° |
| 2026-04-20 12:31 | 38.23237 | -78.29264 | 30286 ft | 370 kts | 241° |
| 2026-04-20 12:31 | 38.20247 | -78.34605 | 30218 ft | 370 kts | 240° |
| 2026-04-20 12:32 | 38.17401 | -78.40014 | 30239 ft | 364 kts | 248° |
| 2026-04-20 12:32 | 38.15543 | -78.45915 | 30147 ft | 360 kts | 253° |
| 2026-04-20 12:33 | 38.13711 | -78.51831 | 30236 ft | 360 kts | 252° |
| 2026-04-20 12:33 | 38.11871 | -78.57733 | 30253 ft | 361 kts | 253° |
| 2026-04-20 12:34 | 38.10027 | -78.63627 | 30272 ft | 359 kts | 252° |
| 2026-04-20 12:34 | 38.08187 | -78.69499 | 30245 ft | 361 kts | 252° |
| 2026-04-20 12:35 | 38.06322 | -78.75442 | 30212 ft | 362 kts | 252° |
| 2026-04-20 12:35 | 38.04466 | -78.81337 | 30284 ft | 362 kts | 252° |
| 2026-04-20 12:36 | 38.02594 | -78.87276 | 30215 ft | 365 kts | 252° |
| 2026-04-20 12:36 | 38.00701 | -78.93269 | 30199 ft | 366 kts | 252° |
| 2026-04-20 12:37 | 37.98810 | -78.99238 | 30267 ft | 366 kts | 252° |
| 2026-04-20 12:37 | 37.96917 | -79.05204 | 30216 ft | 367 kts | 252° |
| 2026-04-20 12:38 | 37.95005 | -79.11215 | 30227 ft | 367 kts | 252° |
| 2026-04-20 12:38 | 37.93106 | -79.17173 | 30219 ft | 368 kts | 252° |
| 2026-04-20 12:39 | 37.90225 | -79.26191 | 30204 ft | 369 kts | 252° |
| 2026-04-20 12:40 | 37.88304 | -79.32156 | 30213 ft | 369 kts | 251° |
| 2026-04-20 12:40 | 37.85635 | -79.37787 | 30216 ft | 374 kts | 243° |
| 2026-04-20 12:41 | 37.82843 | -79.43301 | 30229 ft | 374 kts | 243° |
| 2026-04-20 12:41 | 37.80029 | -79.48852 | 30233 ft | 374 kts | 243° |
| 2026-04-20 12:42 | 37.77238 | -79.54354 | 30236 ft | 373 kts | 243° |
| 2026-04-20 12:42 | 37.74441 | -79.59856 | 30230 ft | 373 kts | 243° |
| 2026-04-20 12:43 | 37.71634 | -79.65371 | 30216 ft | 374 kts | 243° |
| 2026-04-20 12:43 | 37.68823 | -79.70882 | 30242 ft | 374 kts | 243° |
| 2026-04-20 12:44 | 37.66009 | -79.76389 | 30242 ft | 374 kts | 243° |
| 2026-04-20 12:44 | 37.63192 | -79.81895 | 30270 ft | 375 kts | 243° |
| 2026-04-20 12:45 | 37.60361 | -79.87419 | 30255 ft | 376 kts | 243° |
| 2026-04-20 12:45 | 37.57513 | -79.92966 | 30287 ft | 376 kts | 243° |
| 2026-04-20 12:46 | 37.54664 | -79.98508 | 30286 ft | 377 kts | 243° |
| 2026-04-20 12:46 | 37.51812 | -80.04042 | 30286 ft | 378 kts | 243° |
| 2026-04-20 12:47 | 37.48953 | -80.09584 | 30285 ft | 379 kts | 243° |
| 2026-04-20 12:47 | 37.46091 | -80.15121 | 30283 ft | 379 kts | 243° |
| 2026-04-20 12:48 | 37.43201 | -80.20703 | 30280 ft | 380 kts | 243° |
| 2026-04-20 12:48 | 37.40338 | -80.26223 | 30277 ft | 380 kts | 243° |
| 2026-04-20 12:49 | 37.37445 | -80.31792 | 30277 ft | 380 kts | 243° |
| 2026-04-20 12:49 | 37.34556 | -80.37344 | 30285 ft | 381 kts | 243° |
| 2026-04-20 12:50 | 37.31652 | -80.42917 | 30292 ft | 381 kts | 243° |
| 2026-04-20 12:50 | 37.28748 | -80.48480 | 30292 ft | 381 kts | 243° |
| 2026-04-20 12:51 | 37.25947 | -80.54089 | 30287 ft | 379 kts | 245° |
| 2026-04-20 12:51 | 37.23241 | -80.59743 | 30276 ft | 380 kts | 245° |
| 2026-04-20 12:52 | 37.20522 | -80.65402 | 30278 ft | 380 kts | 245° |
| 2026-04-20 12:52 | 37.17785 | -80.71086 | 30282 ft | 381 kts | 244° |
| 2026-04-20 12:53 | 37.15062 | -80.76733 | 30280 ft | 382 kts | 245° |
| 2026-04-20 12:53 | 37.12304 | -80.82442 | 30280 ft | 383 kts | 245° |
| 2026-04-20 12:54 | 37.09546 | -80.88140 | 30268 ft | 384 kts | 245° |
| 2026-04-20 12:54 | 37.06787 | -80.93832 | 30260 ft | 384 kts | 245° |
| 2026-04-20 12:55 | 37.04006 | -80.99560 | 30246 ft | 385 kts | 245° |
| 2026-04-20 12:55 | 37.01241 | -81.05244 | 30245 ft | 385 kts | 245° |
| 2026-04-20 12:56 | 36.98459 | -81.10953 | 30269 ft | 385 kts | 245° |
| 2026-04-20 12:56 | 36.95680 | -81.16648 | 30288 ft | 385 kts | 245° |
| 2026-04-20 12:57 | 36.92883 | -81.22367 | 30293 ft | 384 kts | 245° |
| 2026-04-20 12:57 | 36.90099 | -81.28052 | 30303 ft | 385 kts | 245° |
| 2026-04-20 12:58 | 36.87299 | -81.33761 | 30304 ft | 385 kts | 245° |
| 2026-04-20 12:58 | 36.84508 | -81.39438 | 30271 ft | 384 kts | 245° |
| 2026-04-20 12:59 | 36.81715 | -81.45113 | 30289 ft | 384 kts | 245° |
| 2026-04-20 12:59 | 36.78918 | -81.50786 | 30267 ft | 385 kts | 245° |
| 2026-04-20 13:00 | 36.76105 | -81.56480 | 30248 ft | 385 kts | 245° |
| 2026-04-20 13:00 | 36.73313 | -81.62122 | 30239 ft | 384 kts | 245° |
| 2026-04-20 13:01 | 36.70429 | -81.67767 | 30281 ft | 386 kts | 244° |
| 2026-04-20 13:01 | 36.67559 | -81.73365 | 30280 ft | 386 kts | 244° |
| 2026-04-20 13:02 | 36.64663 | -81.79006 | 30343 ft | 385 kts | 244° |
| 2026-04-20 13:02 | 36.61769 | -81.84633 | 30269 ft | 388 kts | 244° |
| 2026-04-20 13:03 | 36.58847 | -81.90305 | 30273 ft | 388 kts | 244° |
| 2026-04-20 13:03 | 36.55957 | -81.95905 | 30292 ft | 387 kts | 244° |
| 2026-04-20 13:04 | 36.53045 | -82.01540 | 30309 ft | 387 kts | 244° |
| 2026-04-20 13:04 | 36.50136 | -82.07158 | 30309 ft | 388 kts | 244° |
| 2026-04-20 13:05 | 36.47225 | -82.12771 | 30298 ft | 389 kts | 244° |
| 2026-04-20 13:05 | 36.44287 | -82.18426 | 30322 ft | 387 kts | 245° |
| 2026-04-20 13:06 | 36.41376 | -82.24022 | 30311 ft | 388 kts | 244° |
| 2026-04-20 13:06 | 36.38435 | -82.29664 | 30343 ft | 388 kts | 245° |
| 2026-04-20 13:07 | 36.35505 | -82.35276 | 30319 ft | 388 kts | 244° |
| 2026-04-20 13:07 | 36.32577 | -82.40877 | 30299 ft | 388 kts | 244° |
| 2026-04-20 13:08 | 36.29628 | -82.46506 | 30303 ft | 388 kts | 245° |
| 2026-04-20 13:08 | 36.26698 | -82.52091 | 30286 ft | 389 kts | 245° |
| 2026-04-20 13:09 | 36.23753 | -82.57696 | 30312 ft | 389 kts | 245° |
| 2026-04-20 13:09 | 36.20800 | -82.63307 | 30313 ft | 389 kts | 245° |
| 2026-04-20 13:10 | 36.17835 | -82.68931 | 30318 ft | 390 kts | 244° |
| 2026-04-20 13:10 | 36.14877 | -82.74532 | 30332 ft | 391 kts | 244° |
| 2026-04-20 13:11 | 36.11900 | -82.80160 | 30309 ft | 391 kts | 244° |
| 2026-04-20 13:11 | 36.08929 | -82.85767 | 30312 ft | 391 kts | 244° |
| 2026-04-20 13:12 | 36.05956 | -82.91370 | 30319 ft | 391 kts | 244° |
| 2026-04-20 13:12 | 36.02985 | -82.96960 | 30311 ft | 393 kts | 245° |
| 2026-04-20 13:13 | 35.99981 | -83.02602 | 30331 ft | 392 kts | 244° |
| 2026-04-20 13:13 | 35.96987 | -83.08215 | 30274 ft | 393 kts | 244° |
| 2026-04-20 13:14 | 35.93977 | -83.13851 | 30303 ft | 393 kts | 244° |
| 2026-04-20 13:14 | 35.91005 | -83.19473 | 30328 ft | 390 kts | 247° |
| 2026-04-20 13:15 | 35.88206 | -83.25196 | 30296 ft | 391 kts | 246° |
| 2026-04-20 13:15 | 35.85399 | -83.30891 | 30261 ft | 390 kts | 247° |
| 2026-04-20 13:16 | 35.82586 | -83.36585 | 30286 ft | 387 kts | 247° |
| 2026-04-20 13:16 | 35.79806 | -83.42205 | 30295 ft | 385 kts | 247° |
| 2026-04-20 13:17 | 35.77011 | -83.47845 | 30303 ft | 387 kts | 247° |
| 2026-04-20 13:17 | 35.74217 | -83.53472 | 30346 ft | 386 kts | 247° |
| 2026-04-20 13:18 | 35.71262 | -83.59008 | 30304 ft | 388 kts | 245° |
| 2026-04-20 13:18 | 35.68264 | -83.64552 | 30320 ft | 388 kts | 245° |
| 2026-04-20 13:19 | 35.65279 | -83.70068 | 30293 ft | 389 kts | 245° |
| 2026-04-20 13:19 | 35.62289 | -83.75584 | 30367 ft | 389 kts | 245° |
| 2026-04-20 13:20 | 35.59293 | -83.81100 | 30328 ft | 389 kts | 245° |
| 2026-04-20 13:20 | 35.56300 | -83.86607 | 30318 ft | 389 kts | 245° |
| 2026-04-20 13:21 | 35.53275 | -83.92161 | 30326 ft | 390 kts | 245° |
| 2026-04-20 13:21 | 35.50256 | -83.97695 | 30308 ft | 390 kts | 245° |
| 2026-04-20 13:22 | 35.47252 | -84.03194 | 30246 ft | 391 kts | 245° |
| 2026-04-20 13:22 | 35.44229 | -84.08718 | 30367 ft | 389 kts | 245° |
| 2026-04-20 13:23 | 35.41188 | -84.14266 | 30258 ft | 392 kts | 245° |
| 2026-04-20 13:23 | 35.38180 | -84.19745 | 30287 ft | 389 kts | 245° |
| 2026-04-20 13:24 | 35.35170 | -84.25221 | 30242 ft | 387 kts | 245° |
| 2026-04-20 13:24 | 35.32169 | -84.30669 | 30294 ft | 386 kts | 245° |
| 2026-04-20 13:25 | 35.29163 | -84.36122 | 30308 ft | 387 kts | 245° |
| 2026-04-20 13:25 | 35.26172 | -84.41534 | 30363 ft | 382 kts | 245° |
| 2026-04-20 13:26 | 35.23181 | -84.46941 | 30309 ft | 386 kts | 245° |
| 2026-04-20 13:26 | 35.20171 | -84.52373 | 30319 ft | 385 kts | 245° |
| 2026-04-20 13:27 | 35.17181 | -84.57761 | 30320 ft | 383 kts | 245° |
| 2026-04-20 13:27 | 35.14213 | -84.63102 | 30333 ft | 384 kts | 245° |
| 2026-04-20 13:28 | 35.11203 | -84.68509 | 30342 ft | 385 kts | 245° |
| 2026-04-20 13:28 | 35.08191 | -84.73911 | 30351 ft | 384 kts | 245° |
| 2026-04-20 13:29 | 35.05198 | -84.79272 | 30357 ft | 383 kts | 244° |
| 2026-04-20 13:29 | 35.02203 | -84.84627 | 30346 ft | 383 kts | 245° |
| 2026-04-20 13:30 | 34.99207 | -84.89978 | 30356 ft | 384 kts | 245° |
| 2026-04-20 13:30 | 34.96196 | -84.95345 | 30357 ft | 385 kts | 245° |
| 2026-04-20 13:31 | 34.93176 | -85.00722 | 30383 ft | 385 kts | 245° |
| 2026-04-20 13:31 | 34.90154 | -85.06094 | 30383 ft | 385 kts | 245° |
| 2026-04-20 13:32 | 34.87129 | -85.11461 | 30334 ft | 384 kts | 245° |
| 2026-04-20 13:32 | 34.84113 | -85.16805 | 30392 ft | 384 kts | 245° |
| 2026-04-20 13:33 | 34.81092 | -85.22147 | 30196 ft | 377 kts | 245° |
| 2026-04-20 13:33 | 34.79627 | -85.24737 | 29414 ft | 375 kts | 245° |
| 2026-04-20 13:33 | 34.78160 | -85.27325 | 28518 ft | 375 kts | 244° |
| 2026-04-20 13:33 | 34.76568 | -85.29851 | 27729 ft | 376 kts | 242° |
| 2026-04-20 13:34 | 34.74992 | -85.32340 | 27008 ft | 373 kts | 242° |
| 2026-04-20 13:34 | 34.73410 | -85.34849 | 26100 ft | 375 kts | 242° |
| 2026-04-20 13:34 | 34.71833 | -85.37348 | 25273 ft | 374 kts | 242° |
| 2026-04-20 13:34 | 34.70261 | -85.39836 | 24585 ft | 371 kts | 242° |
| 2026-04-20 13:35 | 34.68699 | -85.42312 | 23684 ft | 374 kts | 242° |
| 2026-04-20 13:35 | 34.67126 | -85.44799 | 22995 ft | 368 kts | 241° |
| 2026-04-20 13:35 | 34.65594 | -85.47221 | 22507 ft | 364 kts | 241° |
| 2026-04-20 13:35 | 34.64051 | -85.49659 | 21910 ft | 360 kts | 241° |
| 2026-04-20 13:36 | 34.62550 | -85.52030 | 21289 ft | 356 kts | 241° |
| 2026-04-20 13:36 | 34.61049 | -85.54398 | 20750 ft | 350 kts | 241° |
| 2026-04-20 13:36 | 34.59573 | -85.56727 | 20008 ft | 351 kts | 240° |
| 2026-04-20 13:36 | 34.58098 | -85.59052 | 19338 ft | 349 kts | 240° |
| 2026-04-20 13:37 | 34.56630 | -85.61362 | 18742 ft | 345 kts | 240° |
| 2026-04-20 13:37 | 34.55174 | -85.63655 | 18159 ft | 341 kts | 240° |
| 2026-04-20 13:37 | 34.53744 | -85.65904 | 17572 ft | 337 kts | 239° |
| 2026-04-20 13:37 | 34.52307 | -85.68164 | 16896 ft | 339 kts | 239° |
| 2026-04-20 13:38 | 34.50884 | -85.70400 | 16460 ft | 335 kts | 239° |
| 2026-04-20 13:38 | 34.49469 | -85.72623 | 15938 ft | 335 kts | 239° |
| 2026-04-20 13:38 | 34.48044 | -85.74857 | 15518 ft | 335 kts | 238° |
| 2026-04-20 13:38 | 34.46616 | -85.77096 | 15172 ft | 334 kts | 238° |
| 2026-04-20 13:39 | 34.45207 | -85.79304 | 14909 ft | 332 kts | 238° |
| 2026-04-20 13:39 | 34.43806 | -85.81499 | 14590 ft | 332 kts | 238° |
| 2026-04-20 13:39 | 34.42389 | -85.83717 | 14360 ft | 331 kts | 238° |
| 2026-04-20 13:39 | 34.40991 | -85.85902 | 14158 ft | 330 kts | 238° |
| 2026-04-20 13:40 | 34.39582 | -85.88106 | 13949 ft | 329 kts | 238° |
| 2026-04-20 13:40 | 34.38194 | -85.90274 | 13746 ft | 329 kts | 238° |
| 2026-04-20 13:40 | 34.36785 | -85.92473 | 13541 ft | 328 kts | 238° |
| 2026-04-20 13:40 | 34.35390 | -85.94649 | 13341 ft | 327 kts | 238° |
| 2026-04-20 13:41 | 34.33989 | -85.96836 | 13105 ft | 328 kts | 238° |
| 2026-04-20 13:41 | 34.32605 | -85.98993 | 12874 ft | 328 kts | 238° |
| 2026-04-20 13:41 | 34.31207 | -86.01169 | 12697 ft | 327 kts | 238° |
| 2026-04-20 13:41 | 34.29812 | -86.03340 | 12500 ft | 326 kts | 238° |
| 2026-04-20 13:42 | 34.28420 | -86.05505 | 12270 ft | 327 kts | 238° |
| 2026-04-20 13:42 | 34.25638 | -86.09830 | 11851 ft | 326 kts | 238° |
| 2026-04-20 13:42 | 34.24234 | -86.12011 | 11620 ft | 327 kts | 238° |
| 2026-04-20 13:43 | 34.22847 | -86.14161 | 11449 ft | 326 kts | 238° |
| 2026-04-20 13:43 | 34.21464 | -86.16307 | 11243 ft | 325 kts | 238° |
| 2026-04-20 13:43 | 34.20076 | -86.18461 | 11015 ft | 326 kts | 237° |
| 2026-04-20 13:43 | 34.18673 | -86.20632 | 10742 ft | 324 kts | 237° |
| 2026-04-20 13:44 | 34.17298 | -86.22760 | 10269 ft | 324 kts | 238° |
| 2026-04-20 13:44 | 34.15914 | -86.24903 | 9721 ft | 327 kts | 237° |
| 2026-04-20 13:44 | 34.14512 | -86.27071 | 9254 ft | 326 kts | 237° |
| 2026-04-20 13:44 | 34.13134 | -86.29198 | 8970 ft | 318 kts | 237° |
| 2026-04-20 13:45 | 34.11801 | -86.31255 | 8938 ft | 304 kts | 237° |
| 2026-04-20 13:45 | 34.10534 | -86.33209 | 8936 ft | 291 kts | 238° |
| 2026-04-20 13:45 | 34.09312 | -86.35093 | 8933 ft | 280 kts | 238° |
| 2026-04-20 13:45 | 34.08132 | -86.36914 | 8929 ft | 270 kts | 238° |
| 2026-04-20 13:46 | 34.06991 | -86.38673 | 8732 ft | 266 kts | 238° |
| 2026-04-20 13:46 | 34.05883 | -86.40379 | 8465 ft | 254 kts | 238° |
| 2026-04-20 13:46 | 34.04813 | -86.42027 | 8133 ft | 246 kts | 238° |
| 2026-04-20 13:46 | 34.03764 | -86.43643 | 7802 ft | 241 kts | 238° |
| 2026-04-20 13:47 | 34.02746 | -86.45207 | 7536 ft | 229 kts | 239° |
| 2026-04-20 13:47 | 34.01788 | -86.46680 | 7231 ft | 223 kts | 239° |
| 2026-04-20 13:47 | 34.00668 | -86.47979 | 6879 ft | 230 kts | 214° |
| 2026-04-20 13:47 | 33.99137 | -86.48621 | 6568 ft | 230 kts | 200° |
| 2026-04-20 13:48 | 33.97617 | -86.49171 | 6265 ft | 228 kts | 201° |
| 2026-04-20 13:48 | 33.96114 | -86.49724 | 5971 ft | 225 kts | 200° |
| 2026-04-20 13:48 | 33.94619 | -86.50274 | 5680 ft | 221 kts | 200° |
| 2026-04-20 13:48 | 33.93178 | -86.50806 | 5432 ft | 217 kts | 200° |
| 2026-04-20 13:49 | 33.91746 | -86.51334 | 5183 ft | 213 kts | 199° |
| 2026-04-20 13:49 | 33.90342 | -86.51850 | 4937 ft | 210 kts | 199° |
| 2026-04-20 13:49 | 33.88942 | -86.52367 | 4680 ft | 207 kts | 199° |
| 2026-04-20 13:49 | 33.87569 | -86.52872 | 4427 ft | 205 kts | 199° |
| 2026-04-20 13:50 | 33.86220 | -86.53369 | 4175 ft | 202 kts | 198° |
| 2026-04-20 13:50 | 33.84882 | -86.53861 | 3919 ft | 200 kts | 198° |
| 2026-04-20 13:50 | 33.83567 | -86.54345 | 3668 ft | 197 kts | 198° |
| 2026-04-20 13:50 | 33.82246 | -86.54831 | 3411 ft | 195 kts | 197° |
| 2026-04-20 13:51 | 33.80969 | -86.55300 | 3160 ft | 193 kts | 197° |
| 2026-04-20 13:51 | 33.79679 | -86.55775 | 2911 ft | 191 kts | 196° |
| 2026-04-20 13:51 | 33.78415 | -86.56239 | 2685 ft | 187 kts | 197° |
| 2026-04-20 13:51 | 33.77225 | -86.56676 | 2660 ft | 175 kts | 197° |
| 2026-04-20 13:52 | 33.76056 | -86.57104 | 2675 ft | 174 kts | 197° |
| 2026-04-20 13:52 | 33.74898 | -86.57529 | 2682 ft | 177 kts | 197° |
| 2026-04-20 13:52 | 33.73698 | -86.57970 | 2683 ft | 180 kts | 197° |
| 2026-04-20 13:52 | 33.72493 | -86.58413 | 2698 ft | 182 kts | 197° |
| 2026-04-20 13:53 | 33.71275 | -86.58862 | 2692 ft | 184 kts | 197° |
| 2026-04-20 13:53 | 33.70044 | -86.59315 | 2689 ft | 186 kts | 197° |
| 2026-04-20 13:53 | 33.68821 | -86.59764 | 2681 ft | 183 kts | 197° |
| 2026-04-20 13:53 | 33.67582 | -86.60222 | 2694 ft | 182 kts | 197° |
| 2026-04-20 13:54 | 33.66383 | -86.60665 | 2695 ft | 175 kts | 197° |
| 2026-04-20 13:54 | 33.65268 | -86.61092 | 2689 ft | 165 kts | 199° |
| 2026-04-20 13:54 | 33.64385 | -86.61900 | 2697 ft | 158 kts | 234° |
| 2026-04-20 13:54 | 33.63719 | -86.62959 | 2708 ft | 160 kts | 236° |
| 2026-04-20 13:55 | 33.63065 | -86.64047 | 2676 ft | 164 kts | 237° |
| 2026-04-20 13:55 | 33.62410 | -86.65166 | 2471 ft | 161 kts | 236° |
| 2026-04-20 13:55 | 33.61782 | -86.66242 | 2266 ft | 154 kts | 236° |
| 2026-04-20 13:55 | 33.61176 | -86.67290 | 2062 ft | 148 kts | 236° |
| 2026-04-20 13:56 | 33.60599 | -86.68289 | 1866 ft | 143 kts | 236° |
| 2026-04-20 13:56 | 33.60046 | -86.69249 | 1677 ft | 139 kts | 235° |
| 2026-04-20 13:56 | 33.59499 | -86.70197 | 1491 ft | 135 kts | 235° |
| 2026-04-20 13:56 | 33.58974 | -86.71106 | 1312 ft | 132 kts | 235° |
| 2026-04-20 13:57 | 33.58452 | -86.72009 | 1136 ft | 131 kts | 235° |
| 2026-04-20 13:57 | 33.57939 | -86.72899 | 962 ft | 129 kts | 235° |
| 2026-04-20 13:57 | 33.57435 | -86.73772 | 789 ft | 125 kts | 235° |
| 2026-04-20 13:57 | 33.56947 | -86.74603 | 648 ft | 119 kts | 233° |
| 2026-04-20 13:58 | 33.56527 | -86.75330 | 621 ft | 85 kts | 237° |
| 2026-04-20 13:58 | 33.56318 | -86.75699 | 617 ft | 28 kts | 236° |
| 2026-04-20 13:58 | 33.56169 | -86.75862 | 614 ft | 28 kts | 204° |
| 2026-04-20 13:58 | 33.56049 | -86.75867 | 612 ft | 7 kts | 116° |
| 2026-04-20 13:59 | 33.56047 | -86.75892 | 613 ft | 12 kts | 348° |
| 2026-04-20 13:59 | 33.56134 | -86.75812 | 612 ft | 21 kts | 53° |
| 2026-04-20 13:59 | 33.56177 | -86.75689 | 611 ft | 14 kts | 111° |
| 2026-04-20 13:59 | 33.56183 | -86.75568 | 610 ft | 15 kts | 56° |
| 2026-04-20 14:00 | 33.56215 | -86.75463 | 612 ft | 12 kts | 82° |
| 2026-04-20 14:00 | 33.56209 | -86.75366 | 614 ft | 10 kts | 110° |
| 2026-04-20 14:00 | 33.56170 | -86.75349 | 613 ft | 3 kts | 178° |
| 2026-04-20 14:00 | 33.56167 | -86.75349 | 613 ft | 0 kts | 178° |